Time;durP1;ratioP1;P1;durP2;ratioP2;P2;SDS_P1;SDS_P2;PMS_P1;PMS_P2;Temp;Humidity;BMP_temperature;BMP_pressure;BME280_temperature;BME280_humidity;BME280_pressure;Samples;Min_cycle;Max_cycle;Signal;HPM_P1;HPM_P2
2022/05/14 00:01:18;;;;;;;10.03;9.03;;;;;;;15.41;100.00;96776.56;5071295;27;101868;-59
2022/05/14 00:03:46;;;;;;;11.10;9.90;;;;;;;15.43;100.00;96774.41;5070748;27;103205;-59
2022/05/14 00:06:18;;;;;;;11.23;9.53;;;;;;;15.44;100.00;96770.69;5051617;27;103901;-59
2022/05/14 00:08:48;;;;;;;9.57;8.57;;;;;;;15.47;100.00;96772.81;5071362;27;101726;-59
2022/05/14 00:14:42;;;;;;;9.33;8.33;;;;;;;15.53;100.00;96763.69;5071123;27;101680;-60
2022/05/14 00:17:09;;;;;;;12.97;9.53;;;;;;;15.56;100.00;96763.16;5032527;27;105113;-59
2022/05/14 00:19:36;;;;;;;11.10;9.90;;;;;;;15.57;100.00;96775.47;5050050;27;102846;-60
2022/05/14 00:22:16;;;;;;;10.17;9.17;;;;;;;15.60;100.00;96766.88;5051490;27;102035;-59
2022/05/14 00:24:45;;;;;;;8.70;7.80;;;;;;;15.58;100.00;96765.56;5059021;27;103031;-59
2022/05/14 00:27:12;;;;;;;9.60;8.60;;;;;;;15.59;100.00;96762.59;5051527;27;106978;-60
2022/05/14 00:29:39;;;;;;;9.13;8.23;;;;;;;15.58;100.00;96749.47;5071099;27;101871;-59
2022/05/14 00:32:12;;;;;;;7.57;6.87;;;;;;;15.50;100.00;96758.06;5070695;27;103495;-59
2022/05/14 00:34:39;;;;;;;7.87;7.17;;;;;;;15.49;100.00;96764.50;5055190;27;105349;-60
2022/05/14 00:37:07;;;;;;;9.00;8.07;;;;;;;15.43;100.00;96763.69;5051895;27;105759;-60
2022/05/14 00:39:34;;;;;;;9.40;8.50;;;;;;;15.46;100.00;96762.34;5051727;27;105928;-60
2022/05/14 00:42:20;;;;;;;9.87;8.87;;;;;;;15.47;100.00;96761.31;5070534;27;101889;-59
2022/05/14 00:44:47;;;;;;;8.83;8.00;;;;;;;15.43;100.00;96758.34;5052395;27;105538;-60
2022/05/14 00:47:17;;;;;;;8.57;7.63;;;;;;;15.43;100.00;96755.66;5051244;27;104323;-60
2022/05/14 00:49:46;;;;;;;9.57;7.30;;;;;;;15.44;100.00;96756.47;5052032;27;101951;-59
2022/05/14 00:52:17;;;;;;;8.17;7.47;;;;;;;15.45;100.00;96760.75;5051967;27;105874;-60
2022/05/14 00:54:50;;;;;;;8.93;8.00;;;;;;;15.43;100.00;96761.00;5051563;27;105506;-59
2022/05/14 00:57:22;;;;;;;8.87;7.73;;;;;;;15.44;100.00;96765.31;5075865;27;101845;-60
2022/05/14 00:59:51;;;;;;;9.27;8.37;;;;;;;15.41;100.00;96760.50;5054678;27;105704;-59
2022/05/14 01:02:18;;;;;;;9.03;8.13;;;;;;;15.42;100.00;96766.66;5055427;27;102024;-60
2022/05/14 01:04:47;;;;;;;8.30;7.60;;;;;;;15.40;100.00;96761.56;5055079;27;105376;-60
2022/05/14 01:07:16;;;;;;;8.80;8.00;;;;;;;15.42;100.00;96761.31;5054350;27;105150;-60
2022/05/14 01:09:50;;;;;;;12.23;9.43;;;;;;;15.39;100.00;96762.66;5055403;27;101954;-59
2022/05/14 01:16:02;;;;;;;12.47;11.17;;;;;;;15.41;100.00;96773.06;5053453;27;105789;-60
2022/05/14 01:18:33;;;;;;;12.97;10.90;;;;;;;15.45;100.00;96769.59;5057368;27;102000;-59
2022/05/14 01:21:32;;;;;;;11.27;10.07;;;;;;;15.44;100.00;96767.19;5053590;27;104832;-60
2022/05/14 01:26:54;;;;;;;11.13;8.80;;;;;;;15.35;100.00;96771.47;5061341;27;103737;-60
2022/05/14 01:29:23;;;;;;;9.83;8.57;;;;;;;15.36;100.00;96775.78;5071597;27;105328;-60
2022/05/14 01:31:56;;;;;;;9.60;8.47;;;;;;;15.37;100.00;96769.34;5054856;27;101832;-60
2022/05/14 01:34:26;;;;;;;9.37;8.47;;;;;;;15.40;100.00;96768.81;5054424;27;105402;-60
2022/05/14 01:36:53;;;;;;;9.63;8.67;;;;;;;15.41;100.00;96768.53;5054096;27;105691;-60
2022/05/14 01:39:20;;;;;;;9.63;8.80;;;;;;;15.37;100.00;96770.16;5054496;27;101905;-60
2022/05/14 01:42:04;;;;;;;8.83;8.03;;;;;;;15.42;100.00;96766.66;5057979;27;104725;-60
2022/05/14 01:44:31;;;;;;;9.10;8.30;;;;;;;15.35;100.00;96771.47;5054845;27;101907;-60
2022/05/14 01:46:58;;;;;;;9.17;8.10;;;;;;;15.38;100.00;96770.97;5073113;27;102537;-60
2022/05/14 01:49:26;;;;;;;8.63;7.80;;;;;;;15.40;100.00;96763.44;5054164;27;104994;-59
2022/05/14 01:52:18;;;;;;;8.97;8.17;;;;;;;15.42;100.00;96766.66;5054558;27;101959;-59
2022/05/14 01:54:44;;;;;;;8.37;7.57;;;;;;;15.41;100.00;96762.34;5054823;27;103779;-59
2022/05/14 01:57:13;;;;;;;9.67;8.67;;;;;;;15.42;100.00;96766.66;5053830;27;105874;-60
2022/05/14 01:59:41;;;;;;;7.80;7.10;;;;;;;15.37;100.00;96759.41;5072831;27;101858;-60
2022/05/14 02:02:11;;;;;;;8.37;7.67;;;;;;;15.36;100.00;96771.22;5054524;27;104835;-60
2022/05/14 02:04:38;;;;;;;9.10;8.20;;;;;;;15.37;100.00;96767.47;5057065;27;105667;-60
2022/05/14 02:07:05;;;;;;;8.63;7.93;;;;;;;15.38;100.00;96773.63;5054179;27;105284;-60
2022/05/14 02:09:32;;;;;;;8.93;8.13;;;;;;;15.40;100.00;96774.97;5054045;27;106017;-60
2022/05/14 02:12:06;;;;;;;11.30;10.27;;;;;;;15.40;100.00;96774.16;5054398;27;101964;-59
2022/05/14 02:14:37;;;;;;;9.57;8.77;;;;;;;15.36;100.00;96775.78;5053009;27;105217;-59
2022/05/14 02:17:05;;;;;;;9.63;8.80;;;;;;;15.37;100.00;96780.06;5053361;27;105397;-59
2022/05/14 02:19:34;;;;;;;8.97;8.07;;;;;;;15.37;100.00;96772.03;5054544;27;101955;-59
2022/05/14 02:22:03;;;;;;;9.43;8.53;;;;;;;15.34;100.00;96775.25;5054094;27;105770;-60
2022/05/14 02:24:30;;;;;;;9.73;8.53;;;;;;;15.34;100.00;96769.88;5048128;27;105163;-60
2022/05/14 02:26:57;;;;;;;10.40;9.50;;;;;;;15.33;100.00;96768.28;5041895;27;101927;-60
2022/05/14 02:29:25;;;;;;;10.10;9.10;;;;;;;15.23;100.00;96763.72;5072076;27;102263;-60
2022/05/14 02:35:18;;;;;;;8.37;7.67;;;;;;;15.14;100.00;96759.97;5063430;27;105071;-60
2022/05/14 02:37:45;;;;;;;8.47;7.77;;;;;;;15.09;100.00;96761.88;5048580;27;105298;-60
2022/05/14 02:40:25;;;;;;;7.90;7.20;;;;;;;15.04;100.00;96759.19;5070967;27;102202;-59
2022/05/14 02:42:53;;;;;;;8.10;7.47;;;;;;;14.99;100.00;96756.50;5053719;27;105607;-60
2022/05/14 02:45:36;;;;;;;7.90;7.30;;;;;;;14.99;100.00;96754.63;5071546;27;102531;-60
2022/05/14 02:48:04;;;;;;;8.37;7.57;;;;;;;15.02;100.00;96755.97;5053831;27;102022;-59
2022/05/14 02:50:33;;;;;;;9.50;8.70;;;;;;;15.00;100.00;96752.75;5049226;27;105430;-59
2022/05/14 02:53:01;;;;;;;9.93;9.03;;;;;;;14.93;100.00;96752.22;5053898;27;101822;-59
2022/05/14 02:55:29;;;;;;;8.10;7.50;;;;;;;14.84;100.00;96751.16;5053692;27;105347;-59
2022/05/14 02:57:56;;;;;;;9.87;8.53;;;;;;;14.81;100.00;96757.03;5052842;27;105415;-60
2022/05/14 03:01:15;;;;;;;8.63;7.93;;;;;;;14.79;100.00;96754.63;5053195;27;101983;-60
2022/05/14 03:03:42;;;;;;;8.43;7.63;;;;;;;14.74;100.00;96751.16;5053328;27;105300;-59
2022/05/14 03:06:11;;;;;;;8.80;7.10;;;;;;;14.75;100.00;96752.75;5071322;27;102745;-59
2022/05/14 03:08:38;;;;;;;8.70;7.90;;;;;;;14.77;100.00;96753.31;5072166;27;101726;-60
2022/05/14 03:11:24;;;;;;;8.37;7.57;;;;;;;14.64;100.00;96753.81;5053158;27;105251;-60
2022/05/14 03:13:51;;;;;;;8.03;7.37;;;;;;;14.71;100.00;96751.69;5055733;27;102038;-60
2022/05/14 03:16:49;;;;;;;8.00;7.40;;;;;;;14.64;100.00;96751.13;5053490;27;105426;-59
2022/05/14 03:19:16;;;;;;;8.00;7.30;;;;;;;14.65;100.00;96750.88;5052205;27;105449;-59
2022/05/14 03:21:46;;;;;;;9.33;8.43;;;;;;;14.61;100.00;96762.38;5071581;27;103202;-59
2022/05/14 03:24:13;;;;;;;8.40;7.80;;;;;;;14.61;100.00;96765.84;5052741;27;105214;-59
2022/05/14 03:26:41;;;;;;;8.53;7.73;;;;;;;14.62;100.00;96772.03;5052470;27;105414;-60
2022/05/14 03:29:09;;;;;;;9.70;8.77;;;;;;;14.65;100.00;96766.13;5071333;27;101916;-60
2022/05/14 03:31:37;;;;;;;9.00;8.20;;;;;;;14.64;100.00;96776.03;5071890;27;102934;-60
2022/05/14 03:34:04;;;;;;;9.10;8.30;;;;;;;14.68;100.00;96777.13;5074043;27;102679;-60
2022/05/14 03:36:31;;;;;;;8.40;7.70;;;;;;;14.70;100.00;96771.47;5071436;27;102550;-60
2022/05/14 03:39:01;;;;;;;8.63;7.90;;;;;;;14.75;100.00;96776.84;5070655;27;103066;-60
2022/05/14 03:41:28;;;;;;;9.30;8.47;;;;;;;14.80;100.00;96779.53;5052863;27;101875;-60
2022/05/14 03:43:57;;;;;;;8.17;7.47;;;;;;;14.78;100.00;96777.09;5052582;27;104748;-60
2022/05/14 03:46:27;;;;;;;8.53;7.83;;;;;;;14.79;100.00;96783.28;5070912;27;102721;-60
2022/05/14 03:48:54;;;;;;;8.63;7.83;;;;;;;14.79;100.00;96780.59;5071413;27;101832;-60
2022/05/14 03:51:29;;;;;;;8.27;7.57;;;;;;;14.79;100.00;96777.94;5052953;27;105466;-60
2022/05/14 03:53:57;;;;;;;8.17;7.47;;;;;;;14.74;100.00;96777.91;5035124;27;105607;-60
2022/05/14 03:56:25;;;;;;;8.60;7.80;;;;;;;14.79;100.00;96778.75;5056419;27;101932;-60
2022/05/14 03:58:53;;;;;;;8.30;7.60;;;;;;;14.82;100.00;96782.75;5051699;27;104116;-60
2022/05/14 04:01:51;;;;;;;8.53;7.73;;;;;;;14.81;100.00;96773.09;5071147;27;101727;-60
2022/05/14 04:04:19;;;;;;;8.37;7.63;;;;;;;14.82;100.00;96783.53;5056715;27;102342;-60
2022/05/14 04:06:46;;;;;;;9.40;8.50;;;;;;;14.85;100.00;96788.38;5051978;27;105754;-60
2022/05/14 04:09:14;;;;;;;10.23;8.90;;;;;;;14.82;100.00;96788.91;5052413;27;101924;-60
2022/05/14 04:11:44;;;;;;;9.47;8.63;;;;;;;14.88;100.00;96781.69;5052373;27;104530;-60
2022/05/14 04:14:12;;;;;;;8.87;8.17;;;;;;;14.89;100.00;96786.75;5065051;27;105244;-60
2022/05/14 04:20:01;;;;;;;9.50;8.70;;;;;;;14.98;100.00;96798.53;5055472;27;103883;-60
2022/05/14 04:22:29;;;;;;;9.53;8.73;;;;;;;14.99;100.00;96797.47;5070964;27;101941;-60
2022/05/14 04:24:56;;;;;;;10.43;9.50;;;;;;;14.86;100.00;96797.19;5051934;27;105365;-60
2022/05/14 04:27:25;;;;;;;11.30;10.20;;;;;;;14.75;100.00;96808.97;5051529;27;105139;-60
2022/05/14 04:29:53;;;;;;;12.00;10.33;;;;;;;14.78;100.00;96800.41;5051299;27;101941;-60
2022/05/14 04:32:30;;;;;;;12.40;11.30;;;;;;;14.82;100.00;96809.53;5053810;27;105568;-60
2022/05/14 04:34:58;;;;;;;11.87;10.80;;;;;;;14.89;100.00;96802.03;5054274;27;105470;-60
2022/05/14 04:37:25;;;;;;;11.30;10.13;;;;;;;15.00;100.00;96800.97;5054793;27;101876;-60
2022/05/14 04:39:54;;;;;;;12.37;11.17;;;;;;;15.09;100.00;96796.69;5054609;27;104620;-60
2022/05/14 04:42:21;;;;;;;10.37;9.47;;;;;;;15.10;100.00;96793.72;5057825;27;106043;-60
2022/05/14 04:44:52;;;;;;;9.70;8.80;;;;;;;15.14;100.00;96794.78;5055445;27;105334;-60
2022/05/14 04:47:19;;;;;;;9.70;8.80;;;;;;;15.14;100.00;96791.31;5055067;27;104904;-59
2022/05/14 04:49:48;;;;;;;9.53;8.70;;;;;;;15.13;100.00;96801.22;5072302;27;101954;-60
2022/05/14 04:52:56;;;;;;;9.77;8.77;;;;;;;15.12;100.00;96798.81;5055948;27;104801;-60
2022/05/14 04:55:23;;;;;;;9.87;8.67;;;;;;;15.18;100.00;96803.91;5054544;27;105969;-60
2022/05/14 04:57:50;;;;;;;8.90;8.00;;;;;;;15.30;100.00;96801.75;5068035;27;101984;-60
2022/05/14 05:00:52;;;;;;;9.90;9.00;;;;;;;15.35;100.00;96804.47;5053852;27;102277;-60
2022/05/14 05:03:19;;;;;;;10.00;9.00;;;;;;;15.48;100.00;96800.44;5042504;27;105503;-59
2022/05/14 05:05:50;;;;;;;10.87;9.80;;;;;;;15.58;100.00;96811.13;5059111;27;102110;-60
2022/05/14 05:08:18;;;;;;;12.33;11.13;;;;;;;15.74;100.00;96810.81;5054703;27;105426;-60
2022/05/14 05:11:23;;;;;;;12.00;10.90;;;;;;;16.05;100.00;96809.66;5072884;27;101838;-60
2022/05/14 05:13:50;;;;;;;11.60;10.50;;;;;;;16.24;100.00;96812.53;5072600;27;102613;-60
2022/05/14 05:16:22;;;;;;;12.23;11.00;;;;;;;16.25;100.00;96816.81;5072454;27;102887;-60
2022/05/14 05:18:49;;;;;;;11.73;10.63;;;;;;;16.27;100.00;96810.09;5072634;27;103363;-60
2022/05/14 05:21:19;;;;;;;11.47;10.30;;;;;;;16.36;100.00;96810.31;5054244;27;106333;-60
2022/05/14 05:23:46;;;;;;;12.17;10.97;;;;;;;16.37;100.00;96811.91;5071710;27;102771;-60
2022/05/14 05:26:13;;;;;;;13.23;11.67;;;;;;;16.30;100.00;96801.47;5057758;27;101966;-60
2022/05/14 05:28:40;;;;;;;11.93;10.77;;;;;;;16.29;100.00;96804.44;5053246;27;105490;-59
2022/05/14 05:31:07;;;;;;;11.17;10.17;;;;;;;16.27;100.00;96802.03;5054143;27;102050;-60
2022/05/14 05:33:35;;;;;;;10.77;9.67;;;;;;;16.38;100.00;96810.84;5053683;27;103797;-60
2022/05/14 05:36:02;;;;;;;11.30;10.30;;;;;;;16.58;100.00;96813.44;5054209;27;104043;-60
2022/05/14 05:38:29;;;;;;;12.13;11.03;;;;;;;16.51;100.00;96807.59;5053505;27;101931;-60
2022/05/14 05:41:06;;;;;;;11.07;10.17;;;;;;;16.85;100.00;96813.81;5072471;27;102280;-60
2022/05/14 05:43:33;;;;;;;11.17;10.17;;;;;;;17.07;100.00;96809.59;5052644;27;104471;-60
2022/05/14 05:46:52;;;;;;;11.30;10.30;;;;;;;17.38;100.00;96804.78;5072513;27;102475;-60
2022/05/14 05:49:21;;;;;;;11.20;10.17;;;;;;;17.55;100.00;96807.88;5056696;27;104062;-60
2022/05/14 05:51:52;;;;;;;13.23;9.83;;;;;;;17.63;100.00;96810.75;5072275;27;101845;-60
2022/05/14 05:57:03;;;;;;;9.17;8.20;;;;;;;17.72;100.00;96792.09;5073035;27;101900;-59
2022/05/14 05:59:32;;;;;;;9.47;8.30;;;;;;;17.87;100.00;96791.94;5072810;27;101817;-59
2022/05/14 06:02:08;;;;;;;11.17;8.47;;;;;;;17.74;100.00;96788.03;5073029;27;102637;-60
2022/05/14 06:04:36;;;;;;;8.97;8.07;;;;;;;17.85;100.00;96797.59;5072800;27;102711;-60
2022/05/14 06:07:04;;;;;;;9.77;8.87;;;;;;;17.88;100.00;96790.84;5072928;27;101866;-59
2022/05/14 06:09:32;;;;;;;8.93;8.03;;;;;;;17.85;100.00;96791.41;5054440;27;104082;-59
2022/05/14 06:12:18;;;;;;;9.40;8.37;;;;;;;17.75;100.00;96804.97;5068093;27;105368;-59
2022/05/14 06:15:18;;;;;;;9.83;8.83;;;;;;;17.59;100.00;96806.22;5034382;27;105302;-59
2022/05/14 06:17:46;;;;;;;11.90;9.30;;;;;;;17.48;100.00;96794.75;5045414;27;104377;-59
2022/05/14 06:20:16;;;;;;;10.33;8.93;;;;;;;17.38;100.00;96802.09;5054328;27;101764;-59
2022/05/14 06:22:44;;;;;;;10.77;9.67;;;;;;;17.17;100.00;96801.44;5054116;27;105449;-64
2022/05/14 06:25:12;;;;;;;9.13;8.33;;;;;;;17.25;100.00;96806.25;5033387;27;104155;-63
2022/05/14 06:27:39;;;;;;;10.50;8.90;;;;;;;17.03;100.00;96813.13;5030568;28;101795;-66
2022/05/14 06:30:08;;;;;;;9.87;8.97;;;;;;;17.16;100.00;96810.59;5031294;28;103307;-66
2022/05/14 06:32:35;;;;;;;10.37;9.13;;;;;;;17.31;100.00;96809.66;5031052;28;103259;-66
2022/05/14 06:35:02;;;;;;;10.57;9.57;;;;;;;17.45;100.00;96811.44;5033827;28;101929;-66
2022/05/14 06:37:30;;;;;;;10.53;9.43;;;;;;;17.43;100.00;96815.53;5031426;28;102596;-66
2022/05/14 06:39:57;;;;;;;8.63;7.70;;;;;;;17.62;100.00;96814.53;5031844;28;101726;-66
2022/05/14 06:42:27;;;;;;;9.03;8.17;;;;;;;17.94;100.00;96805.84;5031669;28;102330;-65
2022/05/14 06:45:07;;;;;;;9.67;8.67;;;;;;;17.97;100.00;96806.06;5029911;28;105548;-66
2022/05/14 06:47:34;;;;;;;9.00;8.10;;;;;;;18.36;100.00;96808.59;5031414;27;101839;-66
2022/05/14 06:50:01;;;;;;;9.20;8.13;;;;;;;18.63;100.00;96809.56;5030444;28;105250;-66
2022/05/14 06:52:28;;;;;;;9.03;8.10;;;;;;;18.76;100.00;96805.34;5029516;28;105630;-66
2022/05/14 06:54:59;;;;;;;10.07;8.17;;;;;;;18.64;100.00;96805.78;5029341;28;101940;-66
2022/05/14 06:57:26;;;;;;;9.97;7.93;;;;;;;18.51;100.00;96805.69;5032398;28;105626;-66
2022/05/14 06:59:54;;;;;;;9.37;8.37;;;;;;;18.54;100.00;96815.91;5030203;28;101903;-66
2022/05/14 07:02:27;;;;;;;10.23;9.13;;;;;;;18.42;100.00;96810.16;5031526;27;105432;-64
2022/05/14 07:07:39;;;;;;;12.10;8.77;;;;;;;18.17;100.00;96805.03;5026988;27;101904;-64
2022/05/14 07:10:08;;;;;;;9.03;8.23;;;;;;;18.59;100.00;96799.66;5039891;27;105212;-64
2022/05/14 07:12:36;;;;;;;8.40;7.67;;;;;;;18.62;100.00;96799.06;5030626;28;103109;-64
2022/05/14 07:15:05;;;;;;;10.33;8.13;;;;;;;18.19;100.00;96800.16;5031080;28;102000;-64
2022/05/14 07:17:32;;;;;;;8.67;7.67;;;;;;;18.52;100.00;96788.47;5029704;28;102616;-64
2022/05/14 07:19:59;;;;;;;8.83;7.63;;;;;;;18.74;100.00;96794.06;5032348;28;105708;-64
2022/05/14 07:22:40;;;;;;;9.60;8.67;;;;;;;18.67;100.00;96790.91;5029723;28;102969;-64
2022/05/14 07:25:10;;;;;;;8.50;7.63;;;;;;;18.75;100.00;96792.97;5044361;27;105292;-64
2022/05/14 07:27:37;;;;;;;9.60;7.83;;;;;;;19.00;100.00;96788.00;5045639;27;101789;-64
2022/05/14 07:30:05;;;;;;;8.97;8.13;;;;;;;19.06;100.00;96788.69;5031146;28;101740;-64
2022/05/14 07:32:32;;;;;;;9.30;7.87;;;;;;;19.27;100.00;96784.63;5030677;27;102702;-64
2022/05/14 07:34:59;;;;;;;8.00;7.30;;;;;;;19.56;100.00;96787.91;5030944;27;101972;-63
2022/05/14 07:37:31;;;;;;;9.60;8.57;;;;;;;19.35;100.00;96792.81;5035468;27;102377;-64
2022/05/14 07:40:02;;;;;;;9.53;8.53;;;;;;;19.27;100.00;96798.09;5054246;27;102721;-64
2022/05/14 07:42:35;;;;;;;8.97;8.07;;;;;;;19.25;100.00;96794.91;5031806;27;102374;-63
2022/05/14 07:45:11;;;;;;;9.00;8.10;;;;;;;19.36;100.00;96799.03;5030956;27;103283;-63
2022/05/14 07:47:39;;;;;;;8.00;7.20;;;;;;;19.39;100.00;96791.16;5032092;27;102039;-64
2022/05/14 07:50:08;;;;;;;9.30;7.43;;;;;;;19.69;100.00;96796.03;5030621;27;102388;-63
2022/05/14 07:52:35;;;;;;;8.67;7.80;;;;;;;19.47;100.00;96787.78;5029392;27;105241;-63
2022/05/14 07:55:02;;;;;;;7.90;7.10;;;;;;;19.51;100.00;96785.28;5030759;28;101730;-64
2022/05/14 07:57:31;;;;;;;8.97;7.27;;;;;;;19.56;100.00;96782.50;5036281;27;103571;-64
2022/05/14 07:59:58;;;;;;;10.27;8.13;;;;;;;19.52;100.00;96779.56;5050273;27;102646;-64
2022/05/14 08:02:31;;;;;;;9.77;7.80;;;;;;;19.70;100.00;96780.63;5033849;27;101893;-63
2022/05/14 08:04:58;;;;;;;10.30;7.80;;;;;;;20.27;100.00;96780.06;5028306;28;105512;-63
2022/05/14 08:07:26;;;;;;;10.20;7.60;;;;;;;20.46;100.00;96783.41;5040495;27;101908;-64
2022/05/14 08:09:53;;;;;;;8.33;7.23;;;;;;;20.45;100.00;96776.44;5041972;27;105264;-64
2022/05/14 08:12:45;;;;;;;7.90;6.20;;;;;;;20.64;100.00;96782.47;5043452;27;105441;-63
2022/05/14 08:15:27;;;;;;;7.87;7.07;;;;;;;20.63;100.00;96767.38;5029159;28;101854;-64
2022/05/14 08:17:54;;;;;;;7.60;6.90;;;;;;;20.58;100.00;96770.19;5038216;27;105170;-63
2022/05/14 08:20:26;;;;;;;9.17;7.53;;;;;;;20.91;100.00;96768.91;5036423;27;103129;-63
2022/05/14 08:25:36;;;;;;;8.17;6.07;;;;;;;20.52;100.00;96774.09;5046090;27;105209;-63
2022/05/14 08:28:06;;;;;;;6.50;5.60;;;;;;;20.82;100.00;96766.09;5028981;27;102205;-63
2022/05/14 08:31:00;;;;;;;8.43;6.70;;;;;;;21.47;100.00;96777.28;5029950;27;103685;-63
2022/05/14 08:33:28;;;;;;;7.47;6.77;;;;;;;20.83;100.00;96770.44;5039943;27;105272;-63
2022/05/14 08:35:55;;;;;;;5.80;5.20;;;;;;;20.86;100.00;96771.69;5047358;27;102043;-64
2022/05/14 08:38:23;;;;;;;7.07;4.87;;;;;;;21.40;100.00;96771.47;5035429;27;103374;-63
2022/05/14 08:40:57;;;;;;;4.70;4.30;;;;;;;21.58;100.00;96775.91;5029445;28;103134;-63
2022/05/14 08:43:31;;;;;;;5.83;4.63;;;;;;;21.79;100.00;96774.28;5043075;27;101908;-63
2022/05/14 08:46:14;;;;;;;5.50;4.73;;;;;;;22.04;100.00;96771.69;5035195;27;102316;-63
2022/05/14 08:48:41;;;;;;;5.33;4.27;;;;;;;21.94;100.00;96766.53;5031732;28;105429;-64
2022/05/14 08:51:18;;;;;;;6.37;4.00;;;;;;;21.38;100.00;96765.59;5031574;27;103035;-63
2022/05/14 08:53:49;;;;;;;4.97;4.47;;;;;;;21.07;100.00;96775.56;5049550;27;104289;-63
2022/05/14 08:56:38;;;;;;;5.13;4.10;;;;;;;21.16;100.00;96776.44;5033285;27;101932;-63
2022/05/14 08:59:22;;;;;;;4.77;4.30;;;;;;;21.42;100.00;96769.28;5043025;27;102514;-63
2022/05/14 09:02:16;;;;;;;5.87;4.63;;;;;;;22.18;100.00;96771.56;5042898;27;105433;-63
2022/05/14 09:04:44;;;;;;;5.60;4.53;;;;;;;22.21;100.00;96771.72;5029805;27;101989;-63
2022/05/14 09:07:12;;;;;;;8.87;4.73;;;;;;;22.24;100.00;96767.59;5029563;27;105800;-63
2022/05/14 09:09:51;;;;;;;6.40;4.60;;;;;;;20.95;100.00;96767.19;5034929;27;102584;-63
2022/05/14 09:12:50;;;;;;;6.33;4.90;;;;;;;21.56;100.00;96767.28;5044219;27;101944;-63
2022/05/14 09:16:03;;;;;;;5.97;4.40;;;;;;;21.69;100.00;96769.13;5038042;27;104113;-63
2022/05/14 09:18:34;;;;;;;6.43;4.77;;;;;;;21.36;100.00;96771.31;5052301;27;101880;-63
2022/05/14 09:21:19;;;;;;;4.90;4.30;;;;;;;21.32;100.00;96769.53;5048329;27;104039;-63
2022/05/14 09:23:54;;;;;;;7.90;4.50;;;;;;;21.18;100.00;96775.00;5050364;27;105704;-63
2022/05/14 09:26:26;;;;;;;5.60;4.57;;;;;;;21.49;100.00;96769.63;5033031;27;102099;-63
2022/05/14 09:28:56;;;;;;;5.97;4.60;;;;;;;20.94;100.00;96765.59;5033896;27;102417;-64
2022/05/14 09:31:34;;;;;;;4.93;3.83;;;;;;;21.82;100.00;96768.22;5020756;27;104220;-63
2022/05/14 09:34:06;;;;;;;4.80;4.00;;;;;;;22.88;100.00;96758.63;5047050;27;101919;-63
2022/05/14 09:36:36;;;;;;;4.63;4.00;;;;;;;22.78;99.35;96764.38;5035976;28;102306;-63
2022/05/14 09:39:07;;;;;;;5.10;4.20;;;;;;;22.50;100.00;96763.06;5036759;27;101799;-63
2022/05/14 09:41:43;;;;;;;7.57;5.07;;;;;;;21.52;100.00;96763.63;5051530;27;102318;-62
2022/05/14 09:44:17;;;;;;;6.03;4.40;;;;;;;21.28;100.00;96761.25;5052705;27;102673;-62
2022/05/14 09:46:47;;;;;;;6.40;4.80;;;;;;;21.88;100.00;96753.44;5048684;27;103529;-62
2022/05/14 09:49:23;;;;;;;5.23;4.73;;;;;;;22.54;100.00;96753.16;5032970;28;102416;-62
2022/05/14 09:51:55;;;;;;;5.27;4.13;;;;;;;23.12;100.00;96748.88;5031766;27;104245;-62
2022/05/14 09:54:27;;;;;;;6.03;4.90;;;;;;;22.92;100.00;96749.53;5032790;28;102154;-62
2022/05/14 09:57:14;;;;;;;6.17;4.20;;;;;;;23.52;100.00;96744.03;5034602;27;105655;-63
2022/05/14 10:00:08;;;;;;;6.27;4.87;;;;;;;24.04;100.00;96742.75;5032596;27;102127;-63
2022/05/14 10:03:04;;;;;;;8.73;5.13;;;;;;;24.35;96.27;96744.00;5010705;28;105174;-63
2022/05/14 10:05:54;;;;;;;6.47;5.00;;;;;;;24.12;100.00;96736.47;5021348;27;104494;-64
2022/05/14 10:08:40;;;;;;;5.70;5.17;;;;;;;23.82;100.00;96732.13;5051126;27;101824;-64
2022/05/14 10:11:15;;;;;;;5.97;5.03;;;;;;;23.31;100.00;96729.53;5048366;27;102516;-64
2022/05/14 10:13:50;;;;;;;6.70;5.30;;;;;;;23.27;100.00;96734.81;5052106;27;102683;-64
2022/05/14 10:16:24;;;;;;;6.27;5.60;;;;;;;23.17;100.00;96742.47;5041050;27;101904;-64
2022/05/14 10:19:13;;;;;;;5.47;4.97;;;;;;;23.91;100.00;96733.69;5047777;27;102943;-64
2022/05/14 10:21:51;;;;;;;5.90;5.30;;;;;;;23.19;96.87;96743.78;5045006;27;105503;-64
2022/05/14 10:27:28;;;;;;;5.87;5.10;;;;;;;24.56;96.22;96735.88;5053672;27;104010;-64
2022/05/14 10:30:09;;;;;;;5.83;5.23;;;;;;;24.62;84.10;96734.59;5069915;27;101909;-64
2022/05/14 10:32:37;;;;;;;6.27;5.67;;;;;;;24.78;89.46;96730.13;5072372;27;102915;-64
2022/05/14 10:35:11;;;;;;;5.80;4.73;;;;;;;24.51;100.00;96730.63;5053116;27;104299;-64
2022/05/14 10:37:48;;;;;;;4.67;4.27;;;;;;;24.62;99.86;96726.44;5054018;27;101935;-64
2022/05/14 10:40:34;;;;;;;7.17;5.07;;;;;;;22.87;96.54;96724.47;5053886;27;105145;-64
2022/05/14 10:43:20;;;;;;;5.37;4.63;;;;;;;23.45;100.00;96725.53;5053506;27;105479;-64
2022/05/14 10:46:18;;;;;;;5.77;5.10;;;;;;;23.29;93.84;96721.75;5046494;27;101824;-64
2022/05/14 10:48:53;;;;;;;5.57;4.87;;;;;;;24.32;97.83;96724.84;5053313;27;105400;-64
2022/05/14 10:51:26;;;;;;;5.33;4.67;;;;;;;24.48;91.82;96723.94;5054019;27;101980;-64
2022/05/14 10:53:56;;;;;;;6.27;5.50;;;;;;;23.53;92.30;96715.75;5072396;27;102084;-64
2022/05/14 10:56:27;;;;;;;5.40;4.90;;;;;;;23.70;90.11;96711.06;5071197;27;102705;-64
2022/05/14 10:59:00;;;;;;;4.87;4.43;;;;;;;23.55;96.35;96708.88;5072294;27;101800;-64
2022/05/14 11:01:46;;;;;;;7.73;4.83;;;;;;;23.45;89.95;96711.16;5053775;27;105247;-64
2022/05/14 11:04:20;;;;;;;6.07;5.07;;;;;;;23.72;87.41;96708.84;5052442;27;104266;-64
2022/05/14 11:06:54;;;;;;;6.70;5.23;;;;;;;23.88;81.59;96711.78;5053325;27;101806;-62
2022/05/14 11:09:35;;;;;;;6.73;5.47;;;;;;;24.12;83.53;96699.22;5075281;27;102992;-63
2022/05/14 11:12:11;;;;;;;5.93;4.50;;;;;;;24.26;79.24;96696.25;5053458;27;101823;-63
2022/05/14 11:14:51;;;;;;;4.67;4.20;;;;;;;24.54;78.89;96694.63;5071899;27;101865;-63
2022/05/14 11:17:24;;;;;;;5.07;4.27;;;;;;;24.65;88.49;96693.94;5051190;27;102741;-63
2022/05/14 11:19:52;;;;;;;4.47;3.97;;;;;;;25.43;89.59;96692.06;5051645;27;102090;-63
2022/05/14 11:22:32;;;;;;;4.63;4.17;;;;;;;24.28;71.65;96689.38;5071091;27;101801;-63
2022/05/14 11:25:10;;;;;;;6.07;4.53;;;;;;;23.82;79.86;96683.22;5070428;27;103355;-63
2022/05/14 11:27:38;;;;;;;5.07;4.27;;;;;;;23.72;86.57;96680.88;5051596;27;101690;-63
2022/05/14 11:30:10;;;;;;;4.23;3.73;;;;;;;23.82;82.80;96675.06;5050931;27;105623;-63
2022/05/14 11:32:44;;;;;;;4.43;3.67;;;;;;;24.95;81.62;96681.03;5074658;27;102645;-63
2022/05/14 11:35:11;;;;;;;3.83;3.33;;;;;;;25.99;72.52;96678.44;5052842;27;103651;-63
2022/05/14 11:37:41;;;;;;;3.90;3.50;;;;;;;26.52;62.66;96674.59;5052553;27;106695;-63
2022/05/14 11:40:26;;;;;;;4.63;3.07;;;;;;;26.69;62.26;96677.09;5070924;27;101724;-63
2022/05/14 11:43:06;;;;;;;4.03;3.37;;;;;;;25.30;61.98;96679.56;5071822;27;102418;-63
2022/05/14 11:46:22;;;;;;;4.77;3.57;;;;;;;24.92;65.88;96678.97;5069777;27;102803;-63
2022/05/14 11:48:53;;;;;;;4.03;3.73;;;;;;;24.50;65.96;96680.09;4988549;28;101939;-63
2022/05/14 11:51:33;;;;;;;5.27;3.77;;;;;;;24.33;65.11;96688.38;4971281;28;103839;-63
2022/05/14 11:54:08;;;;;;;3.97;3.20;;;;;;;24.85;66.11;96673.28;4951725;28;105066;-63
2022/05/14 11:56:44;;;;;;;4.30;3.50;;;;;;;24.99;61.81;96673.78;4972797;28;101909;-63
2022/05/14 11:59:18;;;;;;;4.30;3.03;;;;;;;25.91;65.02;96670.38;4963279;28;104307;-63
2022/05/14 12:02:00;;;;;;;3.50;2.90;;;;;;;26.17;63.55;96663.44;4988100;28;102349;-63
2022/05/14 12:04:31;;;;;;;3.43;3.13;;;;;;;26.22;60.64;96663.16;4971322;28;105273;-62
2022/05/14 12:07:19;;;;;;;3.97;3.00;;;;;;;26.58;60.82;96670.50;4970744;28;106099;-62
2022/05/14 12:10:04;;;;;;;4.73;2.77;;;;;;;25.47;57.62;96672.03;4988241;28;102034;-63
2022/05/14 12:12:42;;;;;;;5.10;3.20;;;;;;;24.37;58.52;96670.28;4987962;28;102296;-63